Time;durP1;ratioP1;P1;durP2;ratioP2;P2;SDS_P1;SDS_P2;PMS_P1;PMS_P2;Temp;Humidity;BMP_temperature;BMP_pressure;BME280_temperature;BME280_humidity;BME280_pressure;Samples;Min_cycle;Max_cycle;Signal;HPM_P1;HPM_P2
2021/12/06 00:01:30;;;;;;;27.55;17.85;;;4.60;99.90;;;;;;5033413;28;20037;-84
2021/12/06 00:04:21;;;;;;;28.50;18.05;;;4.50;99.90;;;;;;5034061;28;20068;-84
2021/12/06 00:06:50;;;;;;;26.92;17.55;;;4.50;99.90;;;;;;5017796;28;20425;-83
2021/12/06 00:09:21;;;;;;;27.77;16.80;;;4.50;99.90;;;;;;5017801;28;20572;-84
2021/12/06 00:11:49;;;;;;;32.53;17.77;;;4.50;99.90;;;;;;5033887;28;20041;-84
2021/12/06 00:14:15;;;;;;;29.85;18.52;;;4.50;99.90;;;;;;5033395;28;20497;-83
2021/12/06 00:16:41;;;;;;;30.88;18.70;;;4.50;99.90;;;;;;5017185;28;20040;-84
2021/12/06 00:19:06;;;;;;;28.75;16.33;;;4.50;99.90;;;;;;5050042;28;20039;-83
2021/12/06 00:21:33;;;;;;;29.33;17.80;;;4.50;99.90;;;;;;5036871;28;20098;-84
2021/12/06 00:23:58;;;;;;;29.42;18.00;;;4.50;99.90;;;;;;5050230;28;20511;-84
2021/12/06 00:26:24;;;;;;;28.42;18.50;;;4.50;99.90;;;;;;5036951;28;20040;-84
2021/12/06 00:28:56;;;;;;;27.67;17.38;;;4.50;99.90;;;;;;5036610;28;20076;-84
2021/12/06 00:31:27;;;;;;;27.67;15.67;;;4.50;99.90;;;;;;5049227;28;20053;-84
2021/12/06 00:33:58;;;;;;;29.38;19.25;;;4.50;99.90;;;;;;5049399;28;20087;-84
2021/12/06 00:36:27;;;;;;;27.65;17.83;;;4.50;99.90;;;;;;5033393;28;20040;-84
2021/12/06 00:38:54;;;;;;;29.25;18.77;;;4.50;99.90;;;;;;5032970;28;20037;-84
2021/12/06 00:41:19;;;;;;;28.67;18.60;;;4.50;99.90;;;;;;5049961;28;20047;-84
2021/12/06 00:43:45;;;;;;;28.23;16.85;;;4.50;99.90;;;;;;5049504;28;20132;-84
2021/12/06 00:46:10;;;;;;;26.77;16.38;;;4.50;99.90;;;;;;5049187;28;20041;-84
2021/12/06 00:48:36;;;;;;;26.85;16.83;;;4.50;99.90;;;;;;5049646;28;20048;-84
2021/12/06 00:51:05;;;;;;;28.70;17.00;;;4.50;99.90;;;;;;5049609;28;20041;-84
2021/12/06 00:53:31;;;;;;;26.02;16.20;;;4.50;99.90;;;;;;5048990;28;20491;-84
2021/12/06 00:55:57;;;;;;;26.85;17.13;;;4.50;99.90;;;;;;5049358;28;20045;-84
2021/12/06 00:58:24;;;;;;;27.65;15.70;;;4.40;99.90;;;;;;5033002;28;20091;-84
2021/12/06 01:00:52;;;;;;;26.75;15.43;;;4.40;99.90;;;;;;5048839;28;20044;-84
2021/12/06 01:03:25;;;;;;;25.77;16.15;;;4.40;99.90;;;;;;5047792;28;20056;-84
2021/12/06 01:05:50;;;;;;;23.83;13.65;;;4.40;99.90;;;;;;5048029;28;20387;-84
2021/12/06 01:08:17;;;;;;;27.05;16.35;;;4.40;99.90;;;;;;5049448;28;20525;-84
2021/12/06 01:10:43;;;;;;;28.15;16.08;;;4.40;99.90;;;;;;5049565;28;20048;-84
2021/12/06 01:13:08;;;;;;;26.23;15.88;;;4.40;99.90;;;;;;5032403;28;20044;-84
2021/12/06 01:15:36;;;;;;;28.83;16.65;;;4.40;99.90;;;;;;5048810;28;20037;-84
2021/12/06 01:18:03;;;;;;;26.33;15.45;;;4.40;99.90;;;;;;5032402;28;20075;-84
2021/12/06 01:20:32;;;;;;;29.75;16.58;;;4.30;99.90;;;;;;5032409;28;20037;-84
2021/12/06 01:23:06;;;;;;;27.17;16.10;;;4.30;99.90;;;;;;5048178;28;20048;-84
2021/12/06 01:25:47;;;;;;;26.33;16.48;;;4.30;99.90;;;;;;5048697;28;20056;-84
2021/12/06 01:31:05;;;;;;;26.65;15.82;;;4.30;99.90;;;;;;5049512;28;20502;-84
2021/12/06 01:41:58;;;;;;;26.90;15.27;;;4.30;99.90;;;;;;4998174;28;20044;-84
2021/12/06 01:44:38;;;;;;;31.38;15.55;;;4.30;99.90;;;;;;5053495;28;20036;-84
2021/12/06 01:47:34;;;;;;;30.60;16.05;;;4.30;99.90;;;;;;5056053;28;20040;-84
2021/12/06 01:50:04;;;;;;;28.88;17.13;;;4.30;99.90;;;;;;5036485;28;20044;-84
2021/12/06 01:52:37;;;;;;;32.55;18.77;;;4.20;99.90;;;;;;5056814;28;20040;-84
2021/12/06 01:55:07;;;;;;;30.50;17.33;;;4.20;99.90;;;;;;5039689;28;20464;-84
2021/12/06 01:57:33;;;;;;;28.08;16.48;;;4.20;99.90;;;;;;5056479;28;20726;-84
2021/12/06 01:59:59;;;;;;;35.15;17.98;;;4.20;99.90;;;;;;5055858;28;20037;-84
2021/12/06 02:02:28;;;;;;;30.60;16.90;;;4.20;99.90;;;;;;5039866;28;20048;-84
2021/12/06 02:04:54;;;;;;;34.70;18.23;;;4.20;99.90;;;;;;5055287;28;20535;-84
2021/12/06 02:07:23;;;;;;;31.02;17.33;;;4.20;99.90;;;;;;5039154;28;20496;-83
2021/12/06 02:09:51;;;;;;;33.28;19.55;;;4.20;99.90;;;;;;5055998;28;20036;-83
2021/12/06 02:12:18;;;;;;;31.55;18.02;;;4.20;99.90;;;;;;5055697;28;20036;-84
2021/12/06 02:14:57;;;;;;;31.27;17.85;;;4.20;99.90;;;;;;5039036;28;20036;-84
2021/12/06 02:17:29;;;;;;;33.22;18.40;;;4.20;99.90;;;;;;5056524;28;20266;-84
2021/12/06 02:20:09;;;;;;;34.05;18.83;;;4.20;99.90;;;;;;5039079;28;20064;-84
2021/12/06 02:22:37;;;;;;;34.70;19.05;;;4.20;99.90;;;;;;5038926;28;20489;-84
2021/12/06 02:25:07;;;;;;;36.83;20.83;;;4.20;99.90;;;;;;5055487;28;20043;-84
2021/12/06 02:27:32;;;;;;;32.47;19.05;;;4.20;99.90;;;;;;5055880;28;20041;-84
2021/12/06 02:30:01;;;;;;;33.30;18.25;;;4.20;99.90;;;;;;5056129;28;20047;-84
2021/12/06 02:32:27;;;;;;;36.03;19.90;;;4.20;99.90;;;;;;5039317;28;20397;-84
2021/12/06 02:34:56;;;;;;;33.25;18.67;;;4.20;99.90;;;;;;5038698;28;20036;-84
2021/12/06 02:37:27;;;;;;;34.58;19.23;;;4.20;99.90;;;;;;5038836;28;20132;-84
2021/12/06 02:39:53;;;;;;;37.22;19.95;;;4.20;99.90;;;;;;5055678;28;20036;-84
2021/12/06 02:42:21;;;;;;;36.20;19.85;;;4.20;99.90;;;;;;5055382;28;20093;-84
2021/12/06 02:44:47;;;;;;;38.55;19.83;;;4.20;99.90;;;;;;5038687;28;20078;-84
2021/12/06 02:47:16;;;;;;;34.83;19.33;;;4.20;99.90;;;;;;5055208;28;20036;-84
2021/12/06 02:49:42;;;;;;;37.88;19.88;;;4.20;99.90;;;;;;5055612;28;20036;-84
2021/12/06 02:52:09;;;;;;;36.67;20.27;;;4.20;99.90;;;;;;5055877;28;20414;-84
2021/12/06 02:54:35;;;;;;;34.97;19.58;;;4.20;99.90;;;;;;5054389;28;20516;-84
2021/12/06 02:57:20;;;;;;;36.28;19.48;;;4.20;99.90;;;;;;5038471;28;20037;-84
2021/12/06 02:59:47;;;;;;;40.05;20.23;;;4.20;99.90;;;;;;5055078;28;20044;-84
2021/12/06 03:02:17;;;;;;;35.95;20.65;;;4.20;99.90;;;;;;5054952;28;20394;-84
2021/12/06 03:04:43;;;;;;;40.08;20.65;;;4.20;99.90;;;;;;5054390;28;20047;-84
2021/12/06 03:07:10;;;;;;;39.70;20.67;;;4.20;99.90;;;;;;5038537;28;20032;-84
2021/12/06 03:09:38;;;;;;;39.53;21.52;;;4.20;99.90;;;;;;5054663;28;20037;-84
2021/12/06 03:12:15;;;;;;;41.22;21.33;;;4.20;99.90;;;;;;5038364;28;20044;-84
2021/12/06 03:14:49;;;;;;;38.38;20.85;;;4.20;99.90;;;;;;5055210;28;20476;-84
2021/12/06 03:17:17;;;;;;;40.83;21.90;;;4.20;99.90;;;;;;5038403;28;20037;-84
2021/12/06 03:19:44;;;;;;;36.83;19.65;;;4.20;99.90;;;;;;5054788;28;20080;-84
2021/12/06 03:22:12;;;;;;;38.17;20.65;;;4.20;99.90;;;;;;5054880;28;20047;-84
2021/12/06 03:24:38;;;;;;;39.85;22.58;;;4.20;99.90;;;;;;5053123;28;20044;-84
2021/12/06 03:27:04;;;;;;;40.80;20.88;;;4.20;99.90;;;;;;5054212;28;20048;-84
2021/12/06 03:29:30;;;;;;;38.42;20.63;;;4.20;99.90;;;;;;5054795;28;20036;-84
2021/12/06 03:31:56;;;;;;;40.35;21.25;;;4.20;99.90;;;;;;5054537;28;20123;-84
2021/12/06 03:34:26;;;;;;;39.38;20.33;;;4.20;99.90;;;;;;5037930;28;20036;-84
2021/12/06 03:36:53;;;;;;;40.40;21.75;;;4.20;99.90;;;;;;5054471;28;20457;-83
2021/12/06 03:39:23;;;;;;;40.90;21.45;;;4.20;99.90;;;;;;5037853;28;20044;-84
2021/12/06 03:41:52;;;;;;;42.80;21.20;;;4.30;99.90;;;;;;5054672;28;20037;-84
2021/12/06 03:44:20;;;;;;;42.80;22.73;;;4.20;99.90;;;;;;5053967;28;20040;-84
2021/12/06 03:46:47;;;;;;;40.83;20.48;;;4.20;99.90;;;;;;5037764;28;20514;-84
2021/12/06 03:49:14;;;;;;;42.97;23.65;;;4.20;99.90;;;;;;5054479;28;20052;-84
2021/12/06 03:51:44;;;;;;;42.53;23.63;;;4.30;99.90;;;;;;5054350;28;20032;-84
2021/12/06 03:54:17;;;;;;;46.85;24.25;;;4.20;99.90;;;;;;5035257;28;20036;-83
2021/12/06 03:56:43;;;;;;;43.63;20.77;;;4.20;99.90;;;;;;5053434;28;20086;-83
2021/12/06 03:59:09;;;;;;;43.97;25.10;;;4.20;99.90;;;;;;5037461;28;20040;-83
2021/12/06 04:01:35;;;;;;;38.10;20.77;;;4.20;99.90;;;;;;5037605;28;20531;-84
2021/12/06 04:04:03;;;;;;;45.75;24.50;;;4.20;99.90;;;;;;5053365;28;20097;-83
2021/12/06 04:06:29;;;;;;;41.10;22.45;;;4.20;99.90;;;;;;5036871;28;20048;-83
2021/12/06 04:08:55;;;;;;;44.17;23.75;;;4.20;99.90;;;;;;5053753;28;20032;-83
2021/12/06 04:11:22;;;;;;;42.65;23.55;;;4.20;99.90;;;;;;5037291;28;20041;-84
2021/12/06 04:13:47;;;;;;;43.95;22.20;;;4.20;99.90;;;;;;5053668;28;20040;-84
2021/12/06 04:16:13;;;;;;;47.42;24.42;;;4.20;99.90;;;;;;5037006;28;20038;-84
2021/12/06 04:18:39;;;;;;;48.55;23.70;;;4.20;99.90;;;;;;5037273;28;20459;-84
2021/12/06 04:21:06;;;;;;;44.47;22.73;;;4.20;99.90;;;;;;5037210;28;20044;-84
2021/12/06 04:23:33;;;;;;;47.17;25.40;;;4.20;99.90;;;;;;5052405;28;20089;-83
2021/12/06 04:25:59;;;;;;;49.40;25.77;;;4.20;99.90;;;;;;5036975;28;20040;-84
2021/12/06 04:28:28;;;;;;;48.92;26.35;;;4.20;99.90;;;;;;5036898;28;20093;-83
2021/12/06 04:30:53;;;;;;;52.72;26.17;;;4.30;99.90;;;;;;5053546;28;20052;-84
2021/12/06 04:33:19;;;;;;;48.42;24.33;;;4.30;99.90;;;;;;5037083;28;20385;-83
2021/12/06 04:35:45;;;;;;;48.33;26.38;;;4.20;99.90;;;;;;5036723;28;20040;-84
2021/12/06 04:38:11;;;;;;;49.75;25.27;;;4.30;99.90;;;;;;5050186;28;20544;-84
2021/12/06 04:40:38;;;;;;;47.97;25.38;;;4.20;99.90;;;;;;5036733;28;20044;-84
2021/12/06 04:43:04;;;;;;;50.58;27.48;;;4.30;99.90;;;;;;5060525;28;20071;-84
2021/12/06 04:45:30;;;;;;;52.03;26.98;;;4.20;99.90;;;;;;5072539;28;20062;-84
2021/12/06 04:47:56;;;;;;;52.15;24.17;;;4.20;99.90;;;;;;5072961;28;20051;-84
2021/12/06 04:50:26;;;;;;;51.20;25.48;;;4.20;99.90;;;;;;5072864;28;20054;-84
2021/12/06 04:52:55;;;;;;;51.08;24.92;;;4.20;99.90;;;;;;5072984;28;20036;-84
2021/12/06 04:55:46;;;;;;;49.33;26.80;;;4.20;99.90;;;;;;5072716;28;20036;-84
2021/12/06 04:58:17;;;;;;;50.47;26.10;;;4.20;99.90;;;;;;5056237;28;20079;-84
2021/12/06 05:00:59;;;;;;;52.63;26.67;;;4.20;99.90;;;;;;5073129;28;20117;-84
2021/12/06 05:03:25;;;;;;;51.95;25.05;;;4.20;99.90;;;;;;5072319;28;20500;-84
2021/12/06 05:05:59;;;;;;;54.83;26.60;;;4.20;99.90;;;;;;5072892;28;20492;-84
2021/12/06 05:08:28;;;;;;;51.53;26.92;;;4.20;99.90;;;;;;5073164;28;20109;-84
2021/12/06 05:10:57;;;;;;;59.22;28.55;;;4.20;99.90;;;;;;5056037;28;20047;-84
2021/12/06 05:13:23;;;;;;;54.33;27.23;;;4.20;99.90;;;;;;5056476;28;20040;-84
2021/12/06 05:15:49;;;;;;;60.38;27.70;;;4.20;99.90;;;;;;5072789;28;20032;-84
2021/12/06 05:18:14;;;;;;;55.47;29.23;;;4.20;99.90;;;;;;5072672;28;20038;-84
2021/12/06 05:20:40;;;;;;;52.30;26.48;;;4.20;99.90;;;;;;5072836;28;20036;-84
2021/12/06 05:23:08;;;;;;;51.88;27.00;;;4.20;99.90;;;;;;5070993;28;20164;-84
2021/12/06 05:25:33;;;;;;;52.25;26.83;;;4.20;99.90;;;;;;5055982;28;20040;-84
2021/12/06 05:28:00;;;;;;;52.47;25.80;;;4.20;99.90;;;;;;5072687;28;20059;-84
2021/12/06 05:30:26;;;;;;;51.22;26.05;;;4.20;99.90;;;;;;5056227;28;20036;-84
2021/12/06 05:32:53;;;;;;;53.03;24.13;;;4.20;99.90;;;;;;5072801;28;20092;-84
2021/12/06 05:35:19;;;;;;;48.00;25.15;;;4.20;99.90;;;;;;5072343;28;20096;-84
2021/12/06 05:37:48;;;;;;;48.42;25.35;;;4.20;99.90;;;;;;5073015;28;20392;-84
2021/12/06 05:40:19;;;;;;;47.13;24.00;;;4.20;99.90;;;;;;5072754;28;20044;-84
2021/12/06 05:42:45;;;;;;;43.90;23.23;;;4.20;99.90;;;;;;5072669;28;20044;-84
2021/12/06 05:45:13;;;;;;;41.15;22.02;;;4.20;99.90;;;;;;5055467;28;20081;-84
2021/12/06 05:47:38;;;;;;;42.78;22.67;;;4.20;99.90;;;;;;5072749;28;20408;-84
2021/12/06 05:50:06;;;;;;;38.88;21.33;;;4.20;99.90;;;;;;5072622;28;20123;-84
2021/12/06 05:52:32;;;;;;;41.88;22.33;;;4.20;99.90;;;;;;5072921;28;20511;-84
2021/12/06 05:54:58;;;;;;;44.42;22.35;;;4.20;99.90;;;;;;5072294;28;20040;-84
2021/12/06 05:57:24;;;;;;;41.00;22.23;;;4.20;99.90;;;;;;5056086;28;20048;-84
2021/12/06 05:59:50;;;;;;;44.92;22.27;;;4.20;99.90;;;;;;5055904;28;20036;-84
2021/12/06 06:02:17;;;;;;;42.55;22.45;;;4.20;99.90;;;;;;5072701;28;20059;-84
2021/12/06 06:04:42;;;;;;;44.20;23.55;;;4.20;99.90;;;;;;5055534;28;20082;-84
2021/12/06 06:07:08;;;;;;;43.83;22.58;;;4.20;99.90;;;;;;5072725;28;20039;-83
2021/12/06 06:09:34;;;;;;;44.90;22.95;;;4.20;99.90;;;;;;5072333;28;20393;-84
2021/12/06 06:12:01;;;;;;;45.67;25.02;;;4.10;99.90;;;;;;5071771;28;20097;-84
2021/12/06 06:14:27;;;;;;;49.78;24.73;;;4.10;99.90;;;;;;5071838;28;20078;-84
2021/12/06 06:16:53;;;;;;;44.60;24.13;;;4.10;99.90;;;;;;5071769;28;20079;-84
2021/12/06 06:19:23;;;;;;;45.90;24.35;;;4.10;99.90;;;;;;5071823;28;20040;-84
2021/12/06 06:21:49;;;;;;;48.70;23.75;;;4.10;99.90;;;;;;5055766;28;20028;-84
2021/12/06 06:24:15;;;;;;;47.45;23.55;;;4.10;99.90;;;;;;5054659;28;20055;-83
2021/12/06 06:26:41;;;;;;;47.17;25.08;;;4.10;99.90;;;;;;5055131;28;20044;-84
2021/12/06 06:29:09;;;;;;;50.65;25.60;;;4.10;99.90;;;;;;5055597;28;20048;-84
2021/12/06 06:31:36;;;;;;;47.47;23.40;;;4.00;99.90;;;;;;5075077;28;20036;-84
2021/12/06 06:34:03;;;;;;;48.50;23.55;;;4.00;99.90;;;;;;5075219;28;20504;-84
2021/12/06 06:36:29;;;;;;;47.97;24.42;;;4.00;99.90;;;;;;5059104;28;20071;-83
2021/12/06 06:38:54;;;;;;;45.63;22.60;;;4.00;99.90;;;;;;5075467;28;20075;-84
2021/12/06 06:41:20;;;;;;;43.65;22.38;;;4.00;99.90;;;;;;5075573;28;20867;-84
2021/12/06 06:43:46;;;;;;;46.10;22.52;;;4.00;99.90;;;;;;5058417;28;20160;-84
2021/12/06 06:46:12;;;;;;;42.60;22.95;;;4.00;99.90;;;;;;5059080;28;20109;-83
2021/12/06 06:48:38;;;;;;;45.30;24.17;;;4.00;99.90;;;;;;5075354;28;20109;-84
2021/12/06 06:51:04;;;;;;;42.08;21.13;;;3.90;99.90;;;;;;5075439;28;20058;-84
2021/12/06 06:53:30;;;;;;;44.47;22.48;;;3.90;99.90;;;;;;5075038;28;20057;-84
2021/12/06 06:55:57;;;;;;;43.55;21.83;;;3.90;99.90;;;;;;5059057;28;20040;-84
2021/12/06 06:58:23;;;;;;;39.22;21.52;;;3.90;99.90;;;;;;5075689;28;20071;-84
2021/12/06 07:00:49;;;;;;;44.10;23.02;;;3.90;99.90;;;;;;5058494;28;20094;-84
2021/12/06 07:03:15;;;;;;;42.65;23.10;;;3.90;99.90;;;;;;5075198;28;20078;-83
2021/12/06 07:05:41;;;;;;;43.40;22.67;;;3.90;99.90;;;;;;5058052;28;20032;-84
2021/12/06 07:08:07;;;;;;;42.40;23.17;;;3.90;99.90;;;;;;5059041;28;20032;-84
2021/12/06 07:10:33;;;;;;;45.05;21.98;;;3.90;99.90;;;;;;5058217;28;20492;-84
2021/12/06 07:13:03;;;;;;;41.30;22.25;;;3.90;99.90;;;;;;5058541;28;20047;-83
2021/12/06 07:15:31;;;;;;;41.83;22.02;;;3.80;99.90;;;;;;5074911;28;20051;-84
2021/12/06 07:17:58;;;;;;;39.97;20.58;;;3.80;99.90;;;;;;5075450;28;20048;-84
2021/12/06 07:20:24;;;;;;;43.20;22.90;;;3.80;99.90;;;;;;5037931;28;20845;-84
2021/12/06 07:22:52;;;;;;;47.30;24.23;;;3.80;99.90;;;;;;5025867;28;20068;-84
2021/12/06 07:25:21;;;;;;;40.10;21.42;;;3.80;99.90;;;;;;5034555;28;20438;-84
2021/12/06 07:27:48;;;;;;;42.28;21.75;;;3.80;99.90;;;;;;5034391;28;20501;-84
2021/12/06 07:30:15;;;;;;;40.80;20.40;;;3.80;99.90;;;;;;5018698;28;20041;-84
2021/12/06 07:32:41;;;;;;;37.65;19.55;;;3.80;99.90;;;;;;5034527;28;20071;-84
2021/12/06 07:35:08;;;;;;;35.03;19.73;;;3.80;99.90;;;;;;5034056;28;20041;-84
2021/12/06 07:37:34;;;;;;;40.53;20.80;;;3.80;99.90;;;;;;5034491;28;20040;-84
2021/12/06 07:40:03;;;;;;;36.33;20.25;;;3.70;99.90;;;;;;5034766;28;20037;-84
2021/12/06 07:42:29;;;;;;;36.75;18.88;;;3.70;99.90;;;;;;5035322;28;20044;-83
2021/12/06 07:44:54;;;;;;;37.85;19.15;;;3.70;99.90;;;;;;5035037;28;20029;-84
2021/12/06 07:47:21;;;;;;;38.63;19.95;;;3.70;99.90;;;;;;5034901;28;20439;-84
2021/12/06 07:49:47;;;;;;;39.75;20.80;;;3.70;99.90;;;;;;5034416;28;20115;-84
2021/12/06 07:52:13;;;;;;;40.70;21.13;;;3.70;99.90;;;;;;5018616;28;20194;-84
2021/12/06 07:54:39;;;;;;;39.97;22.50;;;3.70;99.90;;;;;;5033872;28;20493;-84
2021/12/06 07:57:07;;;;;;;36.03;20.15;;;3.70;99.90;;;;;;5033844;28;20504;-84
2021/12/06 07:59:34;;;;;;;39.38;19.42;;;3.60;99.90;;;;;;5017673;28;20037;-83
2021/12/06 08:02:00;;;;;;;38.38;21.70;;;3.70;99.90;;;;;;5034269;28;20167;-84
2021/12/06 08:04:26;;;;;;;40.22;21.67;;;3.70;99.90;;;;;;5033845;28;20052;-84
2021/12/06 08:06:52;;;;;;;47.30;24.92;;;3.70;99.90;;;;;;5034520;28;20040;-84
2021/12/06 08:09:18;;;;;;;51.95;26.83;;;3.70;99.90;;;;;;5034322;28;20072;-83
2021/12/06 08:11:44;;;;;;;53.22;27.67;;;3.70;99.90;;;;;;5034241;28;20591;-84
2021/12/06 08:14:09;;;;;;;48.20;24.90;;;3.70;99.90;;;;;;5050502;28;20528;-84
2021/12/06 08:16:40;;;;;;;54.67;29.92;;;3.70;99.90;;;;;;5050220;28;20401;-84
2021/12/06 08:19:09;;;;;;;57.08;27.65;;;3.70;99.90;;;;;;5033781;28;20036;-83
2021/12/06 08:21:37;;;;;;;66.57;32.05;;;3.60;99.90;;;;;;5033585;28;20073;-83
2021/12/06 08:24:04;;;;;;;60.63;31.73;;;3.70;99.90;;;;;;5045512;28;20094;-84
2021/12/06 08:26:34;;;;;;;54.95;29.60;;;3.60;99.90;;;;;;5051573;28;20036;-83
2021/12/06 08:29:05;;;;;;;58.70;30.85;;;3.70;99.90;;;;;;5037090;28;20037;-83
2021/12/06 08:31:31;;;;;;;67.32;33.90;;;3.70;99.90;;;;;;5052545;28;20107;-83
2021/12/06 08:33:57;;;;;;;65.90;31.92;;;3.70;99.90;;;;;;5036835;28;20492;-84
2021/12/06 08:36:24;;;;;;;67.25;34.70;;;3.70;99.90;;;;;;5053505;28;20086;-83
2021/12/06 08:38:50;;;;;;;65.85;33.10;;;3.70;99.90;;;;;;5053410;28;20405;-84
2021/12/06 08:41:20;;;;;;;70.20;33.75;;;3.70;99.90;;;;;;5053523;28;20048;-83
2021/12/06 08:43:46;;;;;;;61.05;30.85;;;3.70;99.90;;;;;;5053056;28;20033;-84
2021/12/06 08:46:19;;;;;;;55.30;30.23;;;3.70;99.90;;;;;;5053546;28;20052;-84
2021/12/06 08:48:47;;;;;;;49.67;27.58;;;3.70;99.90;;;;;;5036588;28;20036;-84
2021/12/06 08:51:24;;;;;;;45.72;24.25;;;3.70;99.90;;;;;;5053142;28;20044;-84
2021/12/06 08:53:51;;;;;;;45.08;24.15;;;3.70;99.90;;;;;;5051809;28;20076;-84
2021/12/06 08:56:18;;;;;;;41.25;22.23;;;3.70;99.90;;;;;;5036424;28;20037;-84
2021/12/06 08:58:44;;;;;;;40.22;21.08;;;3.70;99.90;;;;;;5036463;28;20123;-83
2021/12/06 09:01:10;;;;;;;36.47;19.27;;;3.70;99.90;;;;;;5052675;28;20670;-84
2021/12/06 09:03:36;;;;;;;34.67;17.40;;;3.70;99.90;;;;;;5052273;28;20217;-84
2021/12/06 09:06:05;;;;;;;33.72;18.27;;;3.70;99.90;;;;;;5052452;28;20115;-84
2021/12/06 09:08:31;;;;;;;32.60;16.50;;;3.70;99.90;;;;;;5052412;28;20048;-84
2021/12/06 09:10:57;;;;;;;41.53;20.73;;;3.70;99.90;;;;;;5036400;28;20514;-84
2021/12/06 09:13:25;;;;;;;42.28;22.63;;;3.70;99.90;;;;;;5052625;28;20044;-83
2021/12/06 09:15:52;;;;;;;41.00;21.30;;;3.70;99.90;;;;;;5035828;28;20036;-84
2021/12/06 09:18:19;;;;;;;36.33;19.02;;;3.70;99.90;;;;;;5052911;28;20393;-84
2021/12/06 09:20:48;;;;;;;38.60;19.92;;;3.70;99.90;;;;;;5053381;28;20047;-84
2021/12/06 09:23:14;;;;;;;44.00;20.90;;;3.70;99.90;;;;;;5052394;28;20051;-84
2021/12/06 09:25:43;;;;;;;36.05;20.55;;;3.80;99.90;;;;;;5035514;28;20041;-84
2021/12/06 09:28:10;;;;;;;39.45;20.75;;;3.80;99.90;;;;;;5035862;28;20036;-84
2021/12/06 09:30:36;;;;;;;38.30;21.58;;;3.80;99.90;;;;;;5035491;28;20067;-83
2021/12/06 09:33:07;;;;;;;44.65;23.50;;;3.80;99.90;;;;;;5035749;28;20040;-83
2021/12/06 09:35:36;;;;;;;43.97;22.70;;;3.80;99.90;;;;;;5052826;28;20443;-84
2021/12/06 09:38:03;;;;;;;36.22;19.83;;;3.80;99.90;;;;;;5052665;28;20044;-83
2021/12/06 09:40:30;;;;;;;34.08;19.25;;;3.80;99.90;;;;;;5047613;28;20112;-82
2021/12/06 09:42:59;;;;;;;33.67;18.98;;;3.80;99.90;;;;;;5046183;28;20137;-83
2021/12/06 09:45:31;;;;;;;31.58;18.42;;;3.80;99.90;;;;;;5050909;28;20044;-83
2021/12/06 09:47:59;;;;;;;32.83;17.83;;;3.80;99.90;;;;;;5032453;28;20048;-83
2021/12/06 09:50:29;;;;;;;34.75;21.08;;;3.80;99.90;;;;;;5052621;28;20394;-84
2021/12/06 09:52:59;;;;;;;45.20;23.85;;;3.80;99.90;;;;;;5052050;28;20036;-83
2021/12/06 09:55:26;;;;;;;41.00;23.10;;;3.70;99.90;;;;;;5052302;28;20036;-84
2021/12/06 09:57:52;;;;;;;28.75;17.00;;;3.80;99.90;;;;;;5052912;28;20560;-83
2021/12/06 10:00:26;;;;;;;29.73;15.40;;;3.80;99.90;;;;;;5052502;28;20524;-84
2021/12/06 10:02:52;;;;;;;33.40;19.05;;;3.70;99.90;;;;;;5052311;28;20048;-84
2021/12/06 10:05:18;;;;;;;36.72;19.10;;;3.70;99.90;;;;;;5053330;28;20119;-83
2021/12/06 10:07:44;;;;;;;31.92;17.63;;;3.80;99.90;;;;;;5039313;28;20489;-84
2021/12/06 10:10:12;;;;;;;31.77;17.83;;;3.80;99.90;;;;;;5050866;28;20044;-84
2021/12/06 10:12:38;;;;;;;32.55;18.25;;;3.70;99.90;;;;;;5050776;28;20041;-84
2021/12/06 10:15:05;;;;;;;32.28;17.70;;;3.80;99.90;;;;;;5051866;28;20092;-84
2021/12/06 10:17:32;;;;;;;30.00;17.00;;;3.80;99.90;;;;;;5035760;28;20037;-84
2021/12/06 10:19:58;;;;;;;29.83;16.45;;;3.80;99.90;;;;;;5038702;28;20044;-84
2021/12/06 10:22:27;;;;;;;28.95;15.93;;;3.90;99.90;;;;;;5055378;28;20044;-84
2021/12/06 10:24:56;;;;;;;31.67;16.67;;;3.90;99.90;;;;;;5051694;28;20527;-83
2021/12/06 10:27:21;;;;;;;29.17;16.25;;;4.00;99.90;;;;;;5038541;28;20055;-84
2021/12/06 10:29:54;;;;;;;27.15;15.75;;;4.00;99.90;;;;;;5055142;28;20048;-84
2021/12/06 10:32:26;;;;;;;31.63;16.75;;;4.10;99.90;;;;;;5054654;28;20040;-84
2021/12/06 10:34:56;;;;;;;32.05;15.80;;;4.10;99.90;;;;;;5054491;28;20382;-84
2021/12/06 10:37:45;;;;;;;33.90;18.42;;;4.10;99.90;;;;;;5038085;28;20051;-84
2021/12/06 10:40:17;;;;;;;35.50;17.80;;;4.10;99.90;;;;;;5054547;28;20028;-84
2021/12/06 10:42:45;;;;;;;33.70;18.60;;;4.00;99.90;;;;;;5055187;28;20071;-83
2021/12/06 10:45:18;;;;;;;31.63;17.92;;;4.00;99.90;;;;;;5054658;28;20393;-84
2021/12/06 10:48:09;;;;;;;33.05;18.23;;;4.00;99.90;;;;;;5055159;28;20047;-84
2021/12/06 10:50:37;;;;;;;34.40;19.02;;;4.10;99.90;;;;;;5054844;28;20101;-84
2021/12/06 10:53:03;;;;;;;33.40;19.10;;;4.10;99.90;;;;;;5055489;28;20040;-83
2021/12/06 10:55:32;;;;;;;34.72;18.73;;;4.20;99.90;;;;;;5052292;28;20036;-83
2021/12/06 10:58:12;;;;;;;27.95;15.70;;;4.20;99.90;;;;;;5070392;28;20570;-84
2021/12/06 11:00:46;;;;;;;28.20;16.50;;;4.20;99.90;;;;;;5055038;28;20122;-84
2021/12/06 11:03:22;;;;;;;28.63;15.70;;;4.20;99.90;;;;;;5055090;28;20081;-84
2021/12/06 11:06:04;;;;;;;28.25;15.18;;;4.20;99.90;;;;;;5054559;28;20529;-83
2021/12/06 11:08:34;;;;;;;30.17;15.32;;;4.20;99.90;;;;;;5072672;28;20067;-83
2021/12/06 11:11:05;;;;;;;27.77;14.25;;;4.20;99.90;;;;;;5037706;28;20036;-84
2021/12/06 11:13:37;;;;;;;29.58;14.82;;;4.10;99.90;;;;;;5054205;28;20111;-83
2021/12/06 11:16:24;;;;;;;28.73;15.63;;;4.10;99.90;;;;;;5037641;28;20036;-84
2021/12/06 11:19:03;;;;;;;29.40;14.77;;;4.10;99.90;;;;;;5038477;28;20057;-84
2021/12/06 11:21:44;;;;;;;28.20;13.98;;;4.10;99.90;;;;;;5055063;28;20124;-84
2021/12/06 11:24:18;;;;;;;30.92;15.40;;;4.10;99.90;;;;;;5054661;28;20047;-83
2021/12/06 11:27:11;;;;;;;30.00;15.75;;;4.10;99.90;;;;;;5038198;28;20526;-83
2021/12/06 11:29:38;;;;;;;26.90;14.40;;;4.20;99.90;;;;;;5033170;28;20501;-83
2021/12/06 11:32:14;;;;;;;29.92;14.88;;;4.20;99.90;;;;;;5017974;28;20532;-84
2021/12/06 11:35:03;;;;;;;30.20;15.00;;;4.20;99.90;;;;;;5017654;28;20664;-83
2021/12/06 11:37:30;;;;;;;27.20;13.80;;;4.20;99.90;;;;;;5034401;28;20043;-83
2021/12/06 11:40:08;;;;;;;32.65;15.98;;;4.20;99.90;;;;;;5018064;28;20041;-84
2021/12/06 11:43:03;;;;;;;31.75;15.35;;;4.20;99.90;;;;;;5034947;28;20413;-84
2021/12/06 11:45:52;;;;;;;29.40;14.70;;;4.20;99.90;;;;;;5021606;28;20041;-83
2021/12/06 11:48:24;;;;;;;29.90;15.57;;;4.20;99.90;;;;;;5018313;28;20511;-83
2021/12/06 11:50:55;;;;;;;27.05;13.45;;;4.20;99.90;;;;;;5033600;28;20048;-84
2021/12/06 11:53:28;;;;;;;30.20;15.30;;;4.20;99.90;;;;;;5019856;28;20084;-83
2021/12/06 11:55:59;;;;;;;30.80;15.75;;;4.30;99.90;;;;;;5033732;28;20079;-84
2021/12/06 11:58:31;;;;;;;33.47;16.63;;;4.30;99.90;;;;;;5034365;28;20044;-84
2021/12/06 12:01:11;;;;;;;29.67;15.27;;;4.30;99.90;;;;;;5023886;28;20041;-84
2021/12/06 12:03:39;;;;;;;32.10;16.92;;;4.30;99.90;;;;;;5049705;28;20140;-84
2021/12/06 12:06:23;;;;;;;32.40;15.93;;;4.40;99.90;;;;;;5032489;28;20049;-84
2021/12/06 12:09:08;;;;;;;29.02;16.00;;;4.50;99.90;;;;;;5017668;28;20041;-84
2021/12/06 12:11:59;;;;;;;33.85;17.02;;;4.50;99.90;;;;;;5033912;28;20205;-84
2021/12/06 12:14:28;;;;;;;33.80;17.25;;;4.50;99.90;;;;;;5043311;28;20045;-83
2021/12/06 12:16:54;;;;;;;32.58;17.92;;;4.50;99.90;;;;;;5042742;28;20280;-83
2021/12/06 12:19:21;;;;;;;32.50;17.92;;;4.50;99.90;;;;;;5043765;28;20044;-82
2021/12/06 12:21:47;;;;;;;31.60;16.35;;;4.50;99.90;;;;;;5041917;28;20038;-83
2021/12/06 12:24:12;;;;;;;31.70;17.20;;;4.50;99.90;;;;;;5046050;28;20032;-83
2021/12/06 12:26:43;;;;;;;34.25;17.30;;;4.50;99.90;;;;;;5041478;28;20896;-83
2021/12/06 12:29:23;;;;;;;34.78;19.63;;;4.50;99.90;;;;;;5024464;28;20048;-83
2021/12/06 12:31:49;;;;;;;36.28;20.67;;;4.50;99.90;;;;;;5042704;28;20049;-83
2021/12/06 12:34:15;;;;;;;36.28;20.17;;;4.50;99.90;;;;;;5040840;28;20117;-82
2021/12/06 12:36:41;;;;;;;40.78;21.48;;;4.60;99.90;;;;;;5053028;28;20120;-83
2021/12/06 12:39:16;;;;;;;40.72;22.63;;;4.60;99.90;;;;;;5032757;28;20137;-83
2021/12/06 12:41:53;;;;;;;42.40;23.15;;;4.60;99.90;;;;;;5033075;28;20045;-83
2021/12/06 12:44:20;;;;;;;39.53;21.30;;;4.60;99.90;;;;;;5052392;28;20044;-83
2021/12/06 12:46:46;;;;;;;46.67;24.05;;;4.60;99.90;;;;;;5017432;28;20040;-83
2021/12/06 12:49:19;;;;;;;48.80;25.30;;;4.60;99.90;;;;;;5033422;28;20040;-82
2021/12/06 12:51:54;;;;;;;41.13;23.73;;;4.60;99.90;;;;;;5032762;28;20062;-83
2021/12/06 12:54:23;;;;;;;44.13;24.52;;;4.60;99.90;;;;;;5033119;28;20040;-83
2021/12/06 12:56:55;;;;;;;53.20;26.70;;;4.60;99.90;;;;;;5033157;28;20120;-83